createdAt,value
2023-03-22T00:02:13.276Z,92.72
2023-03-22T00:05:17.739Z,92.84
2023-03-22T00:08:28.487Z,93.08
2023-03-22T00:11:46.345Z,93.27
2023-03-22T00:14:56.562Z,93.42
2023-03-22T00:17:59.190Z,94.16
2023-03-22T00:21:12.005Z,94.69
2023-03-22T00:24:15.823Z,94.77
2023-03-22T00:27:27.057Z,94.72
2023-03-22T00:30:38.293Z,94.69
2023-03-22T00:33:42.541Z,94.33
2023-03-22T00:36:46.953Z,94.15
2023-03-22T00:39:50.324Z,93.70
2023-03-22T00:43:01.064Z,93.32
2023-03-22T00:46:15.763Z,92.63
2023-03-22T00:49:20.428Z,91.92
2023-03-22T00:52:31.394Z,91.48
2023-03-22T00:55:35.552Z,90.89
2023-03-22T00:58:46.442Z,90.56
2023-03-22T01:01:59.199Z,90.47
2023-03-22T01:05:04.194Z,89.96
2023-03-22T01:08:09.673Z,89.45
2023-03-22T01:11:20.571Z,84.35
2023-03-22T01:14:31.989Z,80.88
2023-03-22T01:17:43.587Z,80.90
2023-03-22T01:20:47.258Z,80.43
2023-03-22T01:23:58.317Z,80.03
2023-03-22T01:27:09.195Z,77.97
2023-03-22T01:30:20.395Z,75.86
2023-03-22T01:33:31.270Z,75.67
2023-03-22T01:36:36.402Z,75.26
2023-03-22T01:39:47.212Z,76.02
2023-03-22T01:42:58.022Z,76.28
2023-03-22T01:46:09.580Z,75.87
2023-03-22T01:49:24.045Z,76.19
2023-03-22T01:52:34.844Z,76.62
2023-03-22T01:55:46.807Z,76.65
2023-03-22T01:58:57.663Z,76.72
2023-03-22T02:02:10.986Z,75.96
2023-03-22T02:05:23.628Z,74.95
2023-03-22T02:08:34.273Z,73.68
2023-03-22T02:11:48.207Z,72.58
2023-03-22T02:15:13.028Z,71.43
2023-03-22T02:18:31.534Z,70.88
2023-03-22T02:21:52.385Z,71.03
2023-03-22T02:25:13.550Z,70.62
2023-03-22T02:28:30.447Z,70.09
2023-03-22T02:31:50.052Z,70.12
2023-03-22T02:35:11.071Z,70.38
2023-03-22T02:38:38.087Z,70.42
2023-03-22T02:41:57.560Z,70.61
2023-03-22T02:45:12.135Z,71.07
2023-03-22T02:48:26.858Z,70.98
2023-03-22T02:51:42.711Z,70.46
2023-03-22T02:55:16.818Z,70.61
2023-03-22T02:58:30.810Z,71.15
2023-03-22T03:02:27.505Z,71.13
2023-03-22T03:05:39.672Z,70.89
2023-03-22T03:08:52.062Z,70.89
2023-03-22T03:12:02.910Z,71.03
2023-03-22T03:15:15.963Z,71.18
2023-03-22T03:18:35.238Z,71.23
2023-03-22T03:21:55.028Z,70.79
2023-03-22T03:25:09.493Z,70.81
2023-03-22T03:28:23.246Z,70.94
2023-03-22T03:31:38.659Z,70.30
2023-03-22T03:34:45.813Z,70.38
2023-03-22T03:37:59.141Z,70.14
2023-03-22T03:41:11.949Z,70.18
2023-03-22T03:44:23.217Z,70.25
2023-03-22T03:47:36.006Z,70.49
2023-03-22T03:50:47.843Z,70.73
2023-03-22T03:53:58.575Z,70.86
2023-03-22T03:57:10.125Z,70.70
2023-03-22T04:00:21.334Z,70.43
2023-03-22T04:03:33.603Z,70.67
2023-03-22T04:06:47.266Z,70.78
2023-03-22T04:09:58.008Z,70.99
2023-03-22T04:13:08.120Z,71.09
2023-03-22T04:16:19.011Z,70.92
2023-03-22T04:19:31.179Z,70.75
2023-03-22T04:22:47.181Z,70.69
2023-03-22T04:25:59.979Z,70.96
2023-03-22T04:29:16.909Z,70.92
2023-03-22T04:32:27.725Z,70.87
2023-03-22T04:35:38.595Z,70.71
2023-03-22T04:38:49.374Z,70.66
2023-03-22T04:42:00.293Z,70.86
2023-03-22T04:45:14.267Z,70.89
2023-03-22T04:48:39.597Z,70.86
2023-03-22T04:52:15.129Z,70.87
2023-03-22T04:55:24.370Z,71.06
2023-03-22T04:58:36.591Z,71.14
2023-03-22T05:01:47.509Z,71.34
2023-03-22T05:05:11.441Z,71.60
2023-03-22T05:08:25.010Z,71.91
2023-03-22T05:11:51.352Z,72.13
2023-03-22T05:15:15.273Z,72.45
2023-03-22T05:18:24.903Z,72.82
2023-03-22T05:21:37.258Z,72.96
2023-03-22T05:24:55.534Z,73.22
2023-03-22T05:28:47.745Z,73.53
2023-03-22T05:31:59.782Z,73.78
2023-03-22T05:35:11.207Z,73.96
2023-03-22T05:38:30.746Z,74.16
2023-03-22T05:41:42.073Z,74.34
2023-03-22T05:45:13.160Z,74.30
2023-03-22T05:48:24.573Z,74.32
2023-03-22T05:51:41.598Z,74.22
2023-03-22T05:54:52.209Z,73.95
2023-03-22T05:58:02.469Z,73.85
2023-03-22T06:01:16.627Z,73.74
2023-03-22T06:04:27.892Z,73.51
2023-03-22T06:07:39.050Z,73.25
2023-03-22T06:10:58.820Z,72.97
2023-03-22T06:14:10.101Z,72.75
2023-03-22T06:17:19.763Z,72.51
2023-03-22T06:20:30.541Z,72.35
2023-03-22T06:23:41.514Z,72.17
2023-03-22T06:26:52.740Z,72.20
2023-03-22T06:30:04.567Z,72.12
2023-03-22T06:33:08.814Z,72.05
2023-03-22T06:36:19.698Z,72.09
2023-03-22T06:39:30.661Z,72.06
2023-03-22T06:42:41.488Z,71.94
2023-03-22T06:45:52.347Z,71.94
2023-03-22T06:49:03.707Z,71.82
2023-03-22T06:52:16.920Z,71.65
2023-03-22T06:55:28.279Z,71.49
2023-03-22T06:58:42.379Z,71.37
2023-03-22T07:01:46.535Z,71.46
2023-03-22T07:04:57.444Z,71.50
2023-03-22T07:07:54.023Z,71.48
2023-03-22T07:11:08.438Z,71.50
2023-03-22T07:14:19.825Z,71.51
2023-03-22T07:17:39.134Z,70.89
2023-03-22T07:20:52.474Z,68.71
2023-03-22T07:24:03.884Z,67.37
2023-03-22T07:27:17.940Z,65.56
2023-03-22T07:30:16.720Z,63.86
2023-03-22T07:33:14.391Z,63.22
2023-03-22T07:36:11.188Z,61.68
2023-03-22T07:39:08.706Z,60.10
2023-03-22T07:42:12.060Z,58.11
2023-03-22T07:45:18.981Z,57.33
2023-03-22T07:48:25.801Z,55.49
2023-03-22T07:51:38.421Z,53.28
2023-03-22T07:54:36.341Z,52.38
2023-03-22T07:57:28.552Z,52.53
2023-03-22T08:00:24.642Z,51.63
2023-03-22T08:03:39.452Z,52.53
2023-03-22T08:07:04.238Z,51.04
2023-03-22T08:09:58.218Z,50.43
2023-03-22T08:12:48.884Z,48.99
2023-03-22T08:15:46.512Z,47.48
2023-03-22T08:18:38.163Z,47.14
2023-03-22T08:21:29.830Z,46.07
2023-03-22T08:24:21.102Z,45.84
2023-03-22T08:27:31.963Z,43.77
2023-03-22T08:30:23.647Z,42.62
2023-03-22T08:33:15.532Z,42.72
2023-03-22T08:36:11.004Z,42.57
2023-03-22T08:39:08.527Z,41.67
2023-03-22T08:42:08.531Z,40.87
2023-03-22T08:45:02.705Z,40.05
2023-03-22T08:47:53.170Z,39.67
2023-03-22T08:50:47.077Z,38.85
2023-03-22T08:53:53.034Z,36.56
2023-03-22T08:57:03.741Z,36.22
2023-03-22T09:00:14.234Z,36.11
2023-03-22T09:03:14.868Z,35.52
2023-03-22T09:06:07.184Z,35.50
2023-03-22T09:09:01.135Z,34.98
2023-03-22T09:11:52.163Z,34.61
2023-03-22T09:14:43.927Z,34.79
2023-03-22T09:17:34.293Z,34.15
2023-03-22T09:20:26.424Z,34.09
2023-03-22T09:23:17.484Z,33.72
2023-03-22T09:26:09.432Z,33.59
2023-03-22T09:29:00.123Z,33.91
2023-03-22T09:31:51.406Z,35.70
2023-03-22T09:34:45.373Z,37.37
2023-03-22T09:37:36.920Z,39.00
2023-03-22T09:40:30.149Z,40.03
2023-03-22T09:43:21.632Z,40.82
2023-03-22T09:46:18.956Z,41.57
2023-03-22T09:49:14.218Z,42.50
2023-03-22T09:52:18.196Z,43.39
2023-03-22T09:55:19.666Z,44.08
2023-03-22T09:58:16.978Z,44.49
2023-03-22T10:01:17.436Z,44.60
2023-03-22T10:04:17.844Z,44.68
2023-03-22T10:07:12.932Z,45.71
2023-03-22T10:10:11.369Z,46.70
2023-03-22T10:13:07.793Z,46.74
2023-03-22T10:15:59.729Z,44.83
2023-03-22T10:18:53.203Z,41.55
2023-03-22T10:21:45.013Z,39.53
2023-03-22T10:24:47.019Z,36.39
2023-03-22T10:27:38.952Z,34.96
2023-03-22T10:30:31.607Z,34.20
2023-03-22T10:33:34.191Z,32.55
2023-03-22T10:36:31.364Z,31.39
2023-03-22T10:39:27.403Z,30.22
2023-03-22T10:42:19.332Z,29.21
2023-03-22T10:45:13.648Z,29.11
2023-03-22T10:48:06.398Z,28.81
2023-03-22T10:50:58.499Z,27.53
2023-03-22T10:53:51.240Z,26.86
2023-03-22T10:56:41.726Z,26.55
2023-03-22T10:59:45.643Z,25.96
2023-03-22T11:02:36.003Z,26.20
2023-03-22T11:05:27.686Z,26.53
2023-03-22T11:08:18.192Z,26.11
2023-03-22T11:11:09.446Z,26.31
2023-03-22T11:14:06.327Z,25.91
2023-03-22T11:16:59.510Z,25.81
2023-03-22T11:19:54.113Z,26.49
2023-03-22T11:22:47.152Z,26.15
2023-03-22T11:25:38.193Z,25.93
2023-03-22T11:28:35.597Z,26.01
2023-03-22T11:31:26.260Z,26.79
2023-03-22T11:34:19.787Z,27.74
2023-03-22T11:37:11.090Z,27.49
2023-03-22T11:40:05.216Z,28.54
2023-03-22T11:42:56.718Z,30.48
2023-03-22T11:45:47.720Z,33.37
2023-03-22T11:48:38.777Z,34.79
2023-03-22T11:51:31.148Z,33.27
2023-03-22T11:54:27.400Z,31.65
2023-03-22T11:57:19.762Z,29.45
2023-03-22T12:00:15.282Z,27.91
2023-03-22T12:03:07.133Z,27.14
2023-03-22T12:05:58.469Z,25.36
2023-03-22T12:08:52.371Z,24.98
2023-03-22T12:11:46.630Z,24.49
2023-03-22T12:14:41.708Z,22.86
2023-03-22T12:17:37.167Z,23.54
2023-03-22T12:20:34.383Z,24.18
2023-03-22T12:23:26.557Z,22.65
2023-03-22T12:26:19.423Z,21.13
2023-03-22T12:29:16.865Z,21.76
2023-03-22T12:32:10.735Z,21.86
2023-03-22T12:35:16.509Z,22.49
2023-03-22T12:38:13.687Z,21.65
2023-03-22T12:41:06.222Z,22.08
2023-03-22T12:43:58.993Z,23.20
2023-03-22T12:46:50.734Z,23.00
2023-03-22T12:49:43.384Z,22.74
2023-03-22T12:52:45.432Z,22.65
2023-03-22T12:55:38.440Z,22.80
2023-03-22T12:58:28.967Z,22.70
2023-03-22T13:01:23.802Z,22.48
2023-03-22T13:04:29.896Z,21.91
2023-03-22T13:07:32.638Z,22.21
2023-03-22T13:10:51.386Z,22.53
2023-03-22T13:13:45.616Z,22.41
2023-03-22T13:16:49.572Z,22.50
2023-03-22T13:19:40.823Z,23.13
2023-03-22T13:22:51.545Z,22.84
2023-03-22T13:25:59.796Z,23.35
2023-03-22T13:28:57.278Z,23.38
2023-03-22T13:31:48.845Z,23.07
2023-03-22T13:34:41.077Z,22.45
2023-03-22T13:37:36.974Z,22.36
2023-03-22T13:40:32.849Z,22.21
2023-03-22T13:43:28.750Z,22.05
2023-03-22T13:46:45.031Z,22.43
2023-03-22T13:49:45.867Z,23.17
2023-03-22T13:52:38.047Z,23.97
2023-03-22T13:55:43.452Z,24.49
2023-03-22T13:58:41.304Z,24.78
2023-03-22T14:01:35.311Z,24.13
2023-03-22T14:04:30.103Z,24.56
2023-03-22T14:07:23.969Z,25.61
2023-03-22T14:10:17.560Z,27.06
2023-03-22T14:13:15.839Z,28.55
2023-03-22T14:16:09.062Z,29.75
2023-03-22T14:18:59.592Z,30.46
